Time,TemperatureF,DewpointF,PressureIn,WindDirection,WindDirectionDegrees,WindSpeedMPH,WindSpeedGustMPH,Humidity,HourlyPrecipIn,Conditions,Clouds,dailyrainin,SoftwareType,DateUTC
2013-01-30 00:00:00,38.3,37.5,30.03,ESE,105,4.0,6.3,97,0.00,,---,0.00,VWS V14.01,2013-01-30 05:00:00,
2013-01-30 00:01:00,38.3,37.5,30.03,East,95,4.9,6.3,97,0.00,,---,0.00,VWS V14.01,2013-01-30 05:01:00,
2013-01-30 00:02:00,38.3,37.5,30.03,East,96,7.8,7.8,97,0.00,,---,0.00,VWS V14.01,2013-01-30 05:02:00,
2013-01-30 00:07:00,38.3,37.5,30.03,East,88,5.8,5.8,97,0.00,,---,0.00,VWS V14.01,2013-01-30 05:07:00,
2013-01-30 00:12:00,38.3,37.5,30.03,ESE,109,4.5,4.9,97,0.00,,---,0.00,VWS V14.01,2013-01-30 05:12:00,
2013-01-30 00:17:00,38.5,37.7,30.03,East,100,5.4,8.3,97,0.00,,---,0.00,VWS V14.01,2013-01-30 05:17:00,
2013-01-30 00:22:00,38.5,37.7,30.03,East,91,5.8,9.6,97,0.00,,---,0.00,VWS V14.01,2013-01-30 05:22:00,
2013-01-30 00:27:00,38.5,37.7,30.03,East,99,4.0,7.8,97,0.00,,---,0.00,VWS V14.01,2013-01-30 05:27:00,
2013-01-30 00:32:00,38.7,37.9,30.03,East,94,6.3,8.7,97,0.00,,---,0.00,VWS V14.01,2013-01-30 05:32:00,
2013-01-30 00:37:00,38.7,37.9,30.03,East,88,8.7,8.7,97,0.00,,---,0.00,VWS V14.01,2013-01-30 05:37:00,
2013-01-30 00:41:00,38.7,37.9,30.03,ESE,116,7.4,7.4,97,0.00,,---,0.00,VWS V14.01,2013-01-30 05:41:00,
2013-01-30 00:46:00,38.7,37.9,30.03,East,95,4.9,5.4,97,0.00,,---,0.00,VWS V14.01,2013-01-30 05:46:00,
2013-01-30 00:52:00,38.5,37.7,30.03,SE,128,8.3,9.6,97,0.00,,---,0.00,VWS V14.01,2013-01-30 05:52:00,
2013-01-30 00:56:00,38.5,37.7,30.03,SE,127,6.3,6.9,97,0.00,,---,0.00,VWS V14.01,2013-01-30 05:56:00,
2013-01-30 01:01:00,38.3,37.5,30.03,SE,131,6.3,8.7,97,0.00,,---,0.00,VWS V14.01,2013-01-30 06:01:00,
2013-01-30 01:06:00,38.1,37.3,30.03,South,169,5.8,6.7,97,0.00,,---,0.00,VWS V14.01,2013-01-30 06:06:00,
2013-01-30 01:11:00,38.1,37.3,30.03,SE,135,6.7,6.7,97,0.00,,---,0.00,VWS V14.01,2013-01-30 06:11:00,
2013-01-30 01:16:00,38.1,37.3,30.03,SE,135,7.8,7.8,97,0.00,,---,0.00,VWS V14.01,2013-01-30 06:16:00,
2013-01-30 01:21:00,38.1,37.3,30.03,SE,145,4.9,9.6,97,0.00,,---,0.00,VWS V14.01,2013-01-30 06:21:00,
2013-01-30 01:26:00,38.1,37.3,30.00,SSE,151,8.3,10.1,97,0.00,,---,0.00,VWS V14.01,2013-01-30 06:26:00,
2013-01-30 01:31:00,38.1,37.3,30.00,SE,124,7.4,8.7,97,0.00,,---,0.00,VWS V14.01,2013-01-30 06:31:00,
2013-01-30 01:36:00,38.3,37.5,30.00,SE,134,6.9,6.9,97,0.00,,---,0.00,VWS V14.01,2013-01-30 06:36:00,
2013-01-30 01:41:00,38.3,37.5,30.00,SE,136,6.7,8.7,97,0.00,,---,0.00,VWS V14.01,2013-01-30 06:41:00,
2013-01-30 01:46:00,38.5,37.7,30.00,ESE,110,10.1,10.1,97,0.00,,---,0.00,VWS V14.01,2013-01-30 06:46:00,
2013-01-30 01:51:00,38.5,37.7,30.00,ESE,103,6.7,10.5,97,0.00,,---,0.00,VWS V14.01,2013-01-30 06:51:00,
2013-01-30 01:56:00,38.7,37.9,30.00,SE,145,8.7,8.7,97,0.00,,---,0.00,VWS V14.01,2013-01-30 06:56:00,
2013-01-30 02:01:00,38.7,37.9,30.00,SE,143,7.8,11.2,97,0.00,,---,0.00,VWS V14.01,2013-01-30 07:01:00,
2013-01-30 02:06:00,38.7,37.9,30.00,ESE,120,6.9,11.0,97,0.00,,---,0.00,VWS V14.01,2013-01-30 07:06:00,
2013-01-30 02:11:00,38.7,37.9,30.00,SE,138,5.8,6.7,97,0.00,,---,0.00,VWS V14.01,2013-01-30 07:11:00,
2013-01-30 02:16:00,38.8,38.1,30.00,SE,136,5.8,8.3,97,0.00,,---,0.00,VWS V14.01,2013-01-30 07:16:00,
2013-01-30 02:21:00,38.8,38.1,30.00,SE,129,7.4,7.8,97,0.00,,---,0.00,VWS V14.01,2013-01-30 07:21:00,
2013-01-30 02:26:00,38.7,37.9,30.00,ESE,109,6.9,6.9,97,0.00,,---,0.00,VWS V14.01,2013-01-30 07:26:00,
2013-01-30 02:31:00,38.7,37.9,30.00,ENE,70,5.4,8.3,97,0.00,,---,0.00,VWS V14.01,2013-01-30 07:31:00,
2013-01-30 02:36:00,38.5,37.7,30.00,ESE,117,6.9,9.2,97,0.00,,---,0.00,VWS V14.01,2013-01-30 07:36:00,
2013-01-30 02:41:00,38.1,37.3,30.00,ESE,113,5.4,9.2,97,0.00,,---,0.00,VWS V14.01,2013-01-30 07:41:00,
2013-01-30 02:46:00,38.1,37.3,30.00,East,93,5.4,6.7,97,0.00,,---,0.00,VWS V14.01,2013-01-30 07:46:00,
2013-01-30 02:51:00,38.1,37.3,30.00,SE,126,5.4,6.7,97,0.00,,---,0.00,VWS V14.01,2013-01-30 07:51:00,
2013-01-30 02:56:00,38.1,37.3,29.97,ESE,120,6.7,9.2,97,0.00,,---,0.00,VWS V14.01,2013-01-30 07:56:00,
2013-01-30 03:01:00,38.1,37.3,29.97,SE,127,7.4,8.7,97,0.00,,---,0.00,VWS V14.01,2013-01-30 08:01:00,
2013-01-30 03:06:00,38.1,37.3,29.97,ESE,117,6.3,7.4,97,0.00,,---,0.00,VWS V14.01,2013-01-30 08:06:00,
2013-01-30 03:11:00,38.3,37.5,29.97,SE,135,4.9,6.7,97,0.00,,---,0.00,VWS V14.01,2013-01-30 08:11:00,
2013-01-30 03:16:00,38.5,37.7,29.97,East,98,5.8,9.2,97,0.00,,---,0.00,VWS V14.01,2013-01-30 08:16:00,
2013-01-30 03:21:00,38.5,37.7,29.97,East,98,7.4,11.6,97,0.00,,---,0.00,VWS V14.01,2013-01-30 08:21:00,
2013-01-30 03:26:00,38.5,37.7,29.97,ESE,103,7.4,9.6,97,0.00,,---,0.00,VWS V14.01,2013-01-30 08:26:00,
2013-01-30 03:31:00,38.5,37.7,29.97,SE,128,6.9,9.6,97,0.00,,---,0.00,VWS V14.01,2013-01-30 08:31:00,
2013-01-30 03:36:00,38.5,37.7,29.97,ESE,115,5.8,6.9,97,0.00,,---,0.00,VWS V14.01,2013-01-30 08:36:00,
2013-01-30 03:41:00,38.5,37.7,29.94,SE,130,6.3,8.3,97,0.00,,---,0.00,VWS V14.01,2013-01-30 08:41:00,
2013-01-30 03:46:00,38.7,37.9,29.94,ESE,115,7.4,9.2,97,0.00,,---,0.00,VWS V14.01,2013-01-30 08:46:00,
2013-01-30 03:51:00,38.8,38.1,29.94,ESE,119,5.4,10.5,97,0.00,,---,0.00,VWS V14.01,2013-01-30 08:51:00,
2013-01-30 03:56:00,38.8,38.1,29.94,SE,128,6.9,9.6,97,0.00,,---,0.00,VWS V14.01,2013-01-30 08:56:00,
2013-01-30 04:01:00,38.8,38.1,29.94,East,86,7.8,10.1,97,0.00,,---,0.00,VWS V14.01,2013-01-30 09:01:00,
2013-01-30 04:06:00,39.0,38.2,29.94,ESE,103,8.7,9.2,97,0.00,,---,0.00,VWS V14.01,2013-01-30 09:06:00,
2013-01-30 04:11:00,39.0,38.2,29.94,ESE,117,10.5,11.6,97,0.00,,---,0.00,VWS V14.01,2013-01-30 09:11:00,
2013-01-30 04:16:00,39.2,38.4,29.94,East,93,4.0,10.1,97,0.00,,---,0.00,VWS V14.01,2013-01-30 09:16:00,
2013-01-30 04:21:00,39.4,38.6,29.94,SSE,159,5.8,10.1,97,0.00,,---,0.00,VWS V14.01,2013-01-30 09:21:00,
2013-01-30 04:26:00,39.4,38.6,29.94,East,80,7.4,10.5,97,0.00,,---,0.00,VWS V14.01,2013-01-30 09:26:00,
2013-01-30 04:31:00,39.4,38.6,29.94,ESE,120,8.7,10.5,97,0.00,,---,0.00,VWS V14.01,2013-01-30 09:31:00,
2013-01-30 04:36:00,39.6,38.8,29.94,SE,133,7.8,10.5,97,0.00,,---,0.00,VWS V14.01,2013-01-30 09:36:00,
2013-01-30 04:41:00,39.6,38.8,29.91,ENE,76,8.7,9.6,97,0.00,,---,0.00,VWS V14.01,2013-01-30 09:41:00,
2013-01-30 04:46:00,39.7,39.0,29.91,ESE,118,7.4,12.5,97,0.00,,---,0.00,VWS V14.01,2013-01-30 09:46:00,
2013-01-30 04:51:00,39.7,39.0,29.91,East,87,8.3,10.5,97,0.00,,---,0.00,VWS V14.01,2013-01-30 09:51:00,
2013-01-30 04:56:00,39.9,39.1,29.91,ESE,123,8.3,10.1,97,0.00,,---,0.00,VWS V14.01,2013-01-30 09:56:00,
2013-01-30 05:01:00,39.9,39.1,29.91,ENE,66,8.3,11.6,97,0.00,,---,0.00,VWS V14.01,2013-01-30 10:01:00,
2013-01-30 05:06:00,39.9,39.1,29.91,ESE,123,7.4,9.6,97,0.00,,---,0.00,VWS V14.01,2013-01-30 10:06:00,
2013-01-30 05:11:00,40.1,39.3,29.91,East,89,6.7,7.8,97,0.00,,---,0.00,VWS V14.01,2013-01-30 10:11:00,
2013-01-30 05:16:00,40.1,39.3,29.91,East,99,6.9,9.2,97,0.00,,---,0.00,VWS V14.01,2013-01-30 10:16:00,
2013-01-30 05:21:00,40.1,39.3,29.91,East,86,11.2,13.9,97,0.00,,---,0.00,VWS V14.01,2013-01-30 10:21:00,
2013-01-30 05:26:00,40.1,39.3,29.91,ESE,105,7.4,10.5,97,0.00,,---,0.00,VWS V14.01,2013-01-30 10:26:00,
2013-01-30 05:31:00,39.9,39.1,29.91,ESE,113,8.7,9.6,97,0.00,,---,0.00,VWS V14.01,2013-01-30 10:31:00,
2013-01-30 05:36:00,39.9,39.1,29.91,SE,139,6.7,9.2,97,0.00,,---,0.00,VWS V14.01,2013-01-30 10:36:00,
2013-01-30 05:41:00,41.4,40.6,29.91,East,80,5.8,9.2,97,0.00,,---,0.00,VWS V14.01,2013-01-30 10:41:00,
2013-01-30 05:46:00,42.4,41.7,29.91,SE,131,9.6,11.2,97,0.00,,---,0.00,VWS V14.01,2013-01-30 10:46:00,
2013-01-30 05:51:00,42.3,41.5,29.91,SSE,148,6.9,10.5,97,0.00,,---,0.00,VWS V14.01,2013-01-30 10:51:00,
2013-01-30 05:56:00,41.0,40.2,29.91,SE,127,10.5,10.5,97,0.00,,---,0.00,VWS V14.01,2013-01-30 10:56:00,
2013-01-30 06:01:00,40.5,39.7,29.91,SE,131,5.4,7.8,97,0.00,,---,0.00,VWS V14.01,2013-01-30 11:01:00,
2013-01-30 06:06:00,40.3,39.5,29.91,SE,127,6.3,9.6,97,0.00,,---,0.00,VWS V14.01,2013-01-30 11:06:00,
2013-01-30 06:11:00,40.3,39.5,29.91,SE,129,7.4,7.4,97,0.00,,---,0.00,VWS V14.01,2013-01-30 11:11:00,
2013-01-30 06:16:00,40.1,39.3,29.91,ESE,123,5.8,7.4,97,0.00,,---,0.00,VWS V14.01,2013-01-30 11:16:00,
2013-01-30 06:21:00,40.3,39.5,29.91,East,98,5.4,5.4,97,0.00,,---,0.00,VWS V14.01,2013-01-30 11:21:00,
2013-01-30 06:26:00,39.9,39.1,29.91,ESE,113,5.4,8.3,97,0.00,,---,0.00,VWS V14.01,2013-01-30 11:26:00,
2013-01-30 06:31:00,39.7,39.0,29.91,ESE,123,5.8,7.4,97,0.00,,---,0.00,VWS V14.01,2013-01-30 11:31:00,
2013-01-30 06:36:00,39.7,39.0,29.91,ESE,112,4.0,6.3,97,0.00,,---,0.00,VWS V14.01,2013-01-30 11:36:00,
2013-01-30 06:41:00,39.9,39.1,29.88,SE,130,4.0,6.3,97,0.00,,---,0.00,VWS V14.01,2013-01-30 11:41:00,
2013-01-30 06:46:00,39.9,39.1,29.88,ESE,116,3.6,4.5,97,0.00,,---,0.00,VWS V14.01,2013-01-30 11:46:00,
2013-01-30 06:51:00,39.9,39.1,29.88,SE,134,9.6,9.6,97,0.00,,---,0.00,VWS V14.01,2013-01-30 11:51:00,
2013-01-30 06:56:00,40.1,39.3,29.88,SE,135,4.5,4.5,97,0.00,,---,0.00,VWS V14.01,2013-01-30 11:56:00,
2013-01-30 07:01:00,40.3,39.5,29.88,SE,134,4.0,4.9,97,0.00,,---,0.00,VWS V14.01,2013-01-30 12:01:00,
2013-01-30 07:06:00,40.6,39.9,29.88,SE,134,5.4,5.8,97,0.00,,---,0.00,VWS V14.01,2013-01-30 12:06:00,
2013-01-30 07:11:00,40.8,40.0,29.88,ESE,120,7.8,8.3,97,0.00,,---,0.00,VWS V14.01,2013-01-30 12:11:00,
2013-01-30 07:16:00,41.2,40.4,29.88,SSE,149,9.2,9.2,97,0.00,,---,0.00,VWS V14.01,2013-01-30 12:16:00,
2013-01-30 07:21:00,41.4,40.6,29.88,SE,136,8.7,11.2,97,0.00,,---,0.00,VWS V14.01,2013-01-30 12:21:00,
2013-01-30 07:26:00,41.7,40.9,29.88,SE,132,11.2,14.3,97,0.00,,---,0.00,VWS V14.01,2013-01-30 12:26:00,
2013-01-30 07:31:00,42.6,41.8,29.88,SSE,157,10.1,13.0,97,0.00,,---,0.00,VWS V14.01,2013-01-30 12:31:00,
2013-01-30 07:36:00,42.8,42.0,29.88,SSE,148,12.5,12.5,97,0.00,,---,0.00,VWS V14.01,2013-01-30 12:36:00,
2013-01-30 07:41:00,42.8,42.0,29.88,SE,132,11.0,13.4,97,0.00,,---,0.00,VWS V14.01,2013-01-30 12:41:00,
2013-01-30 07:46:00,43.0,42.2,29.88,SSE,167,10.5,14.3,97,0.00,,---,0.00,VWS V14.01,2013-01-30 12:46:00,
2013-01-30 07:51:00,43.2,42.4,29.88,SE,140,13.4,13.4,97,0.00,,---,0.00,VWS V14.01,2013-01-30 12:51:00,
2013-01-30 07:56:00,43.5,42.7,29.85,SE,146,11.0,11.0,97,0.00,,---,0.00,VWS V14.01,2013-01-30 12:56:00,
2013-01-30 08:01:00,43.9,43.1,29.85,SE,129,13.4,13.4,97,0.00,,---,0.28,VWS V14.01,2013-01-30 13:01:00,
2013-01-30 08:06:00,44.1,43.3,29.85,SSE,168,8.3,8.3,97,0.00,,---,0.00,VWS V14.01,2013-01-30 13:06:00,
2013-01-30 08:11:00,44.2,43.4,29.85,SSE,167,12.1,12.1,97,0.00,,---,0.00,VWS V14.01,2013-01-30 13:11:00,
2013-01-30 08:16:00,44.6,43.8,29.85,SSE,150,9.2,14.3,97,0.00,,---,0.00,VWS V14.01,2013-01-30 13:16:00,
2013-01-30 08:21:00,44.6,43.8,29.85,SE,140,13.4,16.8,97,0.00,,---,0.00,VWS V14.01,2013-01-30 13:21:00,
2013-01-30 08:26:00,44.6,43.8,29.85,SSE,159,11.6,12.1,97,0.00,,---,0.00,VWS V14.01,2013-01-30 13:26:00,
2013-01-30 08:31:00,44.6,43.8,29.85,ESE,122,12.5,13.9,97,0.00,,---,0.00,VWS V14.01,2013-01-30 13:31:00,
2013-01-30 08:36:00,45.0,44.2,29.85,SSE,156,9.6,16.3,97,0.00,,---,0.00,VWS V14.01,2013-01-30 13:36:00,
2013-01-30 08:41:00,45.3,44.5,29.83,SE,128,15.2,17.7,97,0.00,,---,0.00,VWS V14.01,2013-01-30 13:41:00,
2013-01-30 08:46:00,46.0,45.2,29.83,SSE,154,10.5,17.2,97,0.00,,---,0.00,VWS V14.01,2013-01-30 13:46:00,
2013-01-30 08:51:00,46.6,45.8,29.83,SE,139,13.9,15.9,97,0.00,,---,0.00,VWS V14.01,2013-01-30 13:51:00,
2013-01-30 08:56:00,46.9,46.1,29.83,SSE,157,12.5,14.3,97,0.00,,---,0.00,VWS V14.01,2013-01-30 13:56:00,
2013-01-30 09:00:00,46.9,46.1,29.83,SSE,151,8.7,14.8,97,0.00,,---,0.00,VWS V14.01,2013-01-30 14:00:00,
2013-01-30 09:05:00,46.6,45.5,29.83,South,180,10.1,14.3,96,0.00,,---,0.00,VWS V14.01,2013-01-30 14:05:00,
2013-01-30 09:10:00,46.6,45.5,29.83,SE,145,13.0,15.2,96,0.00,,---,0.00,VWS V14.01,2013-01-30 14:10:00,
2013-01-30 09:15:00,46.6,45.2,29.83,SSE,165,9.2,15.9,95,0.00,,---,0.00,VWS V14.01,2013-01-30 14:15:00,
2013-01-30 09:20:00,46.6,45.0,29.83,SSE,152,15.2,16.3,94,0.00,,---,0.00,VWS V14.01,2013-01-30 14:20:00,
2013-01-30 09:25:00,46.6,44.7,29.83,SSE,160,8.3,16.3,93,0.00,,---,0.00,VWS V14.01,2013-01-30 14:25:00,
2013-01-30 09:30:00,46.8,44.6,29.83,SSE,167,11.2,13.0,92,0.00,,---,0.00,VWS V14.01,2013-01-30 14:30:00,
2013-01-30 09:35:00,46.8,44.6,29.83,SSE,152,12.5,13.4,92,0.00,,---,0.00,VWS V14.01,2013-01-30 14:35:00,
2013-01-30 09:40:00,47.1,44.6,29.80,SSW,193,13.9,15.4,91,0.00,,---,0.00,VWS V14.01,2013-01-30 14:40:00,
2013-01-30 09:45:00,47.5,45.0,29.80,South,173,8.7,15.4,91,0.00,,---,0.00,VWS V14.01,2013-01-30 14:45:00,
2013-01-30 09:50:00,47.7,44.9,29.80,SSE,162,12.1,16.8,90,0.00,,---,0.00,VWS V14.01,2013-01-30 14:50:00,
2013-01-30 09:55:00,48.0,45.2,29.80,SSE,162,9.6,14.3,90,0.00,,---,0.00,VWS V14.01,2013-01-30 14:55:00,
2013-01-30 10:00:00,48.6,45.8,29.80,SE,128,17.7,17.7,90,0.00,,---,0.00,VWS V14.01,2013-01-30 15:00:00,
2013-01-30 10:05:00,48.6,45.8,29.80,South,190,8.7,13.4,90,0.00,,---,0.00,VWS V14.01,2013-01-30 15:05:00,
2013-01-30 10:10:00,48.6,45.8,29.80,SSE,150,9.6,19.0,90,0.00,,---,0.00,VWS V14.01,2013-01-30 15:10:00,
2013-01-30 10:15:00,48.7,45.9,29.80,SSE,158,15.4,21.0,90,0.00,,---,0.00,VWS V14.01,2013-01-30 15:15:00,
2013-01-30 10:20:00,49.5,47.0,29.80,South,185,15.9,18.6,91,0.00,,---,0.00,VWS V14.01,2013-01-30 15:20:00,
2013-01-30 10:25:00,50.0,47.8,29.77,SSW,212,20.6,20.6,92,0.00,,---,0.00,VWS V14.01,2013-01-30 15:25:00,
2013-01-30 10:30:00,50.0,47.8,29.77,South,185,13.9,23.7,92,0.00,,---,0.00,VWS V14.01,2013-01-30 15:30:00,
2013-01-30 10:35:00,49.8,47.6,29.77,South,177,20.1,23.3,92,0.00,,---,0.00,VWS V14.01,2013-01-30 15:35:00,
2013-01-30 10:40:00,49.5,47.2,29.77,South,184,19.5,22.4,92,0.00,,---,0.00,VWS V14.01,2013-01-30 15:40:00,
2013-01-30 10:45:00,49.3,47.3,29.77,South,171,16.3,22.4,93,0.00,,---,0.00,VWS V14.01,2013-01-30 15:45:00,
2013-01-30 10:50:00,49.3,47.3,29.77,SSE,159,17.2,17.2,93,0.00,,---,0.00,VWS V14.01,2013-01-30 15:50:00,
2013-01-30 10:55:00,50.0,48.1,29.77,SSE,162,15.2,21.0,93,0.00,,---,0.00,VWS V14.01,2013-01-30 15:55:00,
2013-01-30 11:00:00,50.4,48.1,29.77,SSE,150,12.1,20.6,92,0.00,,---,0.00,VWS V14.01,2013-01-30 16:00:00,
2013-01-30 11:05:00,50.5,47.7,29.77,SSE,153,13.0,17.2,90,0.00,,---,0.00,VWS V14.01,2013-01-30 16:05:00,
2013-01-30 11:10:00,50.7,47.3,29.77,South,188,16.3,16.3,88,0.00,,---,0.00,VWS V14.01,2013-01-30 16:10:00,
2013-01-30 11:15:00,50.4,46.3,29.77,SSE,168,12.5,15.2,86,0.00,,---,0.00,VWS V14.01,2013-01-30 16:15:00,
2013-01-30 11:20:00,49.8,45.8,29.77,SSE,149,15.9,20.1,86,0.00,,---,0.00,VWS V14.01,2013-01-30 16:20:00,
2013-01-30 11:25:00,49.5,45.5,29.74,SSE,154,18.6,18.6,86,0.00,,---,0.00,VWS V14.01,2013-01-30 16:25:00,
2013-01-30 11:30:00,49.1,45.7,29.74,South,174,14.3,16.3,88,0.00,,---,0.00,VWS V14.01,2013-01-30 16:30:00,
2013-01-30 11:35:00,49.3,46.5,29.74,South,176,12.1,12.1,90,0.00,,---,0.00,VWS V14.01,2013-01-30 16:35:00,
2013-01-30 11:40:00,49.5,47.0,29.74,SSE,156,13.9,14.8,91,0.00,,---,0.00,VWS V14.01,2013-01-30 16:40:00,
2013-01-30 11:45:00,49.8,47.3,29.74,ESE,120,11.6,17.7,91,0.00,,---,0.00,VWS V14.01,2013-01-30 16:45:00,
2013-01-30 11:50:00,50.2,47.7,29.74,South,184,12.5,15.2,91,0.00,,---,0.00,VWS V14.01,2013-01-30 16:50:00,
2013-01-30 11:55:00,50.4,47.8,29.74,South,187,12.1,13.9,91,0.00,,---,0.00,VWS V14.01,2013-01-30 16:55:00,
2013-01-30 12:00:00,50.4,47.5,29.74,South,173,13.9,17.2,90,0.00,,---,0.00,VWS V14.01,2013-01-30 17:00:00,
2013-01-30 12:05:00,50.2,47.1,29.74,SSE,161,9.2,11.6,89,0.00,,---,0.00,VWS V14.01,2013-01-30 17:05:00,
2013-01-30 12:10:00,50.0,46.9,29.71,SE,141,9.6,11.6,89,0.00,,---,0.00,VWS V14.01,2013-01-30 17:10:00,
2013-01-30 12:15:00,49.3,46.2,29.71,South,171,10.5,11.2,89,0.00,,---,0.00,VWS V14.01,2013-01-30 17:15:00,
2013-01-30 12:20:00,49.1,46.3,29.71,SSE,167,11.2,17.2,90,0.00,,---,0.00,VWS V14.01,2013-01-30 17:20:00,
2013-01-30 12:25:00,49.3,46.5,29.71,South,175,15.9,15.9,90,0.00,,---,0.00,VWS V14.01,2013-01-30 17:25:00,
2013-01-30 12:30:00,49.5,47.0,29.71,South,169,15.2,17.2,91,0.00,,---,0.00,VWS V14.01,2013-01-30 17:30:00,
2013-01-30 12:35:00,49.6,47.1,29.71,South,181,15.2,17.2,91,0.00,,---,0.00,VWS V14.01,2013-01-30 17:35:00,
2013-01-30 12:40:00,49.5,47.0,29.68,South,183,11.6,13.4,91,0.00,,---,0.00,VWS V14.01,2013-01-30 17:40:00,
2013-01-30 12:45:00,49.8,47.3,29.68,South,182,11.0,15.9,91,0.00,,---,0.00,VWS V14.01,2013-01-30 17:45:00,
2013-01-30 12:50:00,49.8,47.3,29.68,South,172,15.2,15.2,91,0.00,,---,0.00,VWS V14.01,2013-01-30 17:50:00,
2013-01-30 12:55:00,50.0,47.5,29.68,SSE,151,11.6,14.3,91,0.00,,---,0.00,VWS V14.01,2013-01-30 17:55:00,
2013-01-30 13:00:00,50.5,48.6,29.68,SSE,148,12.5,14.3,93,0.00,,---,0.00,VWS V14.01,2013-01-30 18:00:00,
2013-01-30 13:05:00,50.9,49.0,29.68,SE,145,16.3,16.3,93,0.00,,---,0.00,VWS V14.01,2013-01-30 18:05:00,
2013-01-30 13:10:00,51.4,49.5,29.65,SSE,162,16.8,22.8,93,0.00,,---,0.00,VWS V14.01,2013-01-30 18:10:00,
2013-01-30 13:15:00,52.0,50.3,29.65,South,179,13.9,16.3,94,0.00,,---,0.00,VWS V14.01,2013-01-30 18:15:00,
2013-01-30 13:20:00,52.3,50.7,29.65,South,172,10.1,14.8,94,0.00,,---,0.00,VWS V14.01,2013-01-30 18:20:00,
2013-01-30 13:25:00,51.8,49.8,29.65,South,171,20.6,23.3,93,0.00,,---,0.00,VWS V14.01,2013-01-30 18:25:00,
2013-01-30 13:30:00,51.6,49.4,29.65,SSE,158,22.4,23.7,92,0.00,,---,0.00,VWS V14.01,2013-01-30 18:30:00,
2013-01-30 13:35:00,51.4,49.5,29.65,SSE,158,15.9,15.9,93,0.00,,---,0.00,VWS V14.01,2013-01-30 18:35:00,
2013-01-30 13:40:00,51.3,49.3,29.65,South,171,17.2,17.2,93,0.00,,---,0.00,VWS V14.01,2013-01-30 18:40:00,
2013-01-30 13:45:00,51.3,49.3,29.65,South,175,10.1,13.0,93,0.00,,---,0.00,VWS V14.01,2013-01-30 18:45:00,
2013-01-30 13:50:00,51.4,49.8,29.65,SSW,193,9.6,13.4,94,0.00,,---,0.00,VWS V14.01,2013-01-30 18:50:00,
2013-01-30 13:55:00,51.3,49.6,29.65,SSE,166,10.1,10.1,94,0.00,,---,0.00,VWS V14.01,2013-01-30 18:55:00,
2013-01-30 14:00:00,51.3,49.9,29.65,SSW,209,8.3,9.2,95,0.00,,---,0.00,VWS V14.01,2013-01-30 19:00:00,
2013-01-30 14:05:00,51.6,50.2,29.65,SSE,166,14.3,14.3,95,0.00,,---,0.00,VWS V14.01,2013-01-30 19:05:00,
2013-01-30 14:10:00,51.8,50.4,29.65,SSE,160,14.8,15.9,95,0.00,,---,0.00,VWS V14.01,2013-01-30 19:10:00,
2013-01-30 14:15:00,52.2,50.8,29.65,South,176,15.9,17.2,95,0.00,,---,0.00,VWS V14.01,2013-01-30 19:15:00,
2013-01-30 14:20:00,52.3,51.0,29.65,South,169,12.5,19.0,95,0.00,,---,0.00,VWS V14.01,2013-01-30 19:20:00,
2013-01-30 14:25:00,52.5,51.1,29.65,South,175,11.0,12.5,95,0.00,,---,0.00,VWS V14.01,2013-01-30 19:25:00,
2013-01-30 14:30:00,52.3,51.0,29.65,SSE,156,15.4,19.0,95,0.00,,---,0.00,VWS V14.01,2013-01-30 19:30:00,
2013-01-30 14:35:00,52.2,50.8,29.65,South,190,9.6,11.6,95,0.00,,---,0.00,VWS V14.01,2013-01-30 19:35:00,
2013-01-30 14:40:00,51.8,50.4,29.65,South,184,13.4,14.3,95,0.00,,---,0.00,VWS V14.01,2013-01-30 19:40:00,
2013-01-30 14:45:00,51.3,49.6,29.65,South,169,11.6,13.4,94,0.00,,---,0.00,VWS V14.01,2013-01-30 19:45:00,
2013-01-30 14:50:00,50.5,48.9,29.65,South,179,11.0,15.2,94,0.00,,---,0.00,VWS V14.01,2013-01-30 19:50:00,
2013-01-30 14:55:00,50.2,48.8,29.62,South,189,6.7,10.5,95,0.00,,---,0.00,VWS V14.01,2013-01-30 19:55:00,
2013-01-30 15:00:00,49.8,48.5,29.62,SSW,193,15.2,15.2,95,0.00,,---,0.00,VWS V14.01,2013-01-30 20:00:00,
2013-01-30 15:05:00,49.8,48.7,29.62,SSW,192,10.1,10.5,96,0.00,,---,0.00,VWS V14.01,2013-01-30 20:05:00,
2013-01-30 15:10:00,50.0,49.2,29.62,South,188,13.4,14.3,97,0.00,,---,0.00,VWS V14.01,2013-01-30 20:10:00,
2013-01-30 15:15:00,50.4,49.5,29.62,SW,221,13.4,16.3,97,0.00,,---,0.00,VWS V14.01,2013-01-30 20:15:00,
2013-01-30 15:20:00,50.9,50.1,29.62,SW,217,13.9,15.2,97,0.00,,---,0.00,VWS V14.01,2013-01-30 20:20:00,
2013-01-30 15:25:00,51.1,50.3,29.62,South,171,19.5,19.5,97,0.00,,---,0.00,VWS V14.01,2013-01-30 20:25:00,
2013-01-30 15:30:00,51.4,50.6,29.62,SSW,204,15.2,15.2,97,0.00,,---,0.00,VWS V14.01,2013-01-30 20:30:00,
2013-01-30 15:35:00,51.6,50.8,29.62,South,183,8.7,8.7,97,0.00,,---,0.00,VWS V14.01,2013-01-30 20:35:00,
2013-01-30 15:40:00,51.6,50.8,29.62,South,183,14.3,16.3,97,0.00,,---,0.00,VWS V14.01,2013-01-30 20:40:00,
2013-01-30 15:45:00,51.1,50.3,29.62,SSW,198,18.6,18.6,97,0.00,,---,0.00,VWS V14.01,2013-01-30 20:45:00,
2013-01-30 15:50:00,50.7,49.9,29.62,SSW,203,11.0,11.0,97,0.00,,---,0.00,VWS V14.01,2013-01-30 20:50:00,
2013-01-30 15:55:00,50.5,49.7,29.62,South,180,9.6,9.6,97,0.00,,---,0.00,VWS V14.01,2013-01-30 20:55:00,
2013-01-30 16:00:00,50.2,49.4,29.62,SSW,200,18.1,18.1,97,0.00,,---,0.00,VWS V14.01,2013-01-30 21:00:00,
2013-01-30 16:05:00,50.2,49.4,29.62,SSE,165,11.6,11.6,97,0.00,,---,0.00,VWS V14.01,2013-01-30 21:05:00,
2013-01-30 16:10:00,50.9,50.1,29.62,South,171,14.3,14.3,97,0.00,,---,0.00,VWS V14.01,2013-01-30 21:10:00,
2013-01-30 16:15:00,51.4,50.6,29.62,SSE,167,16.8,16.8,97,0.00,,---,0.00,VWS V14.01,2013-01-30 21:15:00,
2013-01-30 16:20:00,51.4,50.6,29.62,SSE,168,10.5,10.5,97,0.00,,---,0.00,VWS V14.01,2013-01-30 21:20:00,
2013-01-30 16:25:00,51.4,50.6,29.62,SSE,156,14.3,14.3,97,0.00,,---,0.00,VWS V14.01,2013-01-30 21:25:00,
2013-01-30 16:30:00,51.1,50.3,29.62,SSE,166,9.6,14.8,97,0.00,,---,0.00,VWS V14.01,2013-01-30 21:30:00,
2013-01-30 16:35:00,50.7,49.9,29.62,SSE,156,15.4,16.3,97,0.00,,---,0.00,VWS V14.01,2013-01-30 21:35:00,
2013-01-30 16:40:00,50.2,49.4,29.62,SSE,164,10.1,17.2,97,0.00,,---,0.00,VWS V14.01,2013-01-30 21:40:00,
2013-01-30 16:45:00,50.2,49.4,29.59,South,190,11.2,17.2,97,0.00,,---,0.00,VWS V14.01,2013-01-30 21:45:00,
2013-01-30 16:50:00,50.4,49.5,29.59,SSE,158,11.2,18.1,97,0.00,,---,0.00,VWS V14.01,2013-01-30 21:50:00,
2013-01-30 16:55:00,50.9,50.1,29.59,South,178,13.9,16.8,97,0.00,,---,0.00,VWS V14.01,2013-01-30 21:55:00,
2013-01-30 16:59:00,50.7,49.9,29.62,South,181,11.6,17.2,97,0.00,,---,0.00,VWS V14.01,2013-01-30 21:59:00,
2013-01-30 17:04:00,50.5,49.7,29.62,SSW,207,13.9,18.6,97,0.00,,---,0.00,VWS V14.01,2013-01-30 22:04:00,
2013-01-30 17:09:00,50.2,49.4,29.62,SSW,192,17.2,18.1,97,0.00,,---,0.00,VWS V14.01,2013-01-30 22:09:00,
2013-01-30 17:14:00,50.0,49.2,29.62,South,176,20.1,20.1,97,0.00,,---,0.00,VWS V14.01,2013-01-30 22:14:00,
2013-01-30 17:19:00,50.0,49.2,29.62,South,190,13.0,14.8,97,0.00,,---,0.00,VWS V14.01,2013-01-30 22:19:00,
2013-01-30 17:24:00,49.8,49.0,29.62,South,180,17.7,17.7,97,0.00,,---,0.00,VWS V14.01,2013-01-30 22:24:00,
2013-01-30 17:29:00,49.6,48.8,29.62,South,171,10.5,17.2,97,0.00,,---,0.00,VWS V14.01,2013-01-30 22:29:00,
2013-01-30 17:34:00,49.6,48.8,29.62,South,190,13.4,16.8,97,0.00,,---,0.00,VWS V14.01,2013-01-30 22:34:00,
2013-01-30 17:39:00,49.8,49.0,29.62,SSE,168,13.9,15.4,97,0.00,,---,0.00,VWS V14.01,2013-01-30 22:39:00,
2013-01-30 17:44:00,50.2,49.4,29.62,SSE,168,11.6,11.6,97,0.00,,---,0.00,VWS V14.01,2013-01-30 22:44:00,
2013-01-30 17:49:00,50.2,49.4,29.62,South,181,18.6,18.6,97,0.00,,---,0.00,VWS V14.01,2013-01-30 22:49:00,
2013-01-30 17:54:00,50.2,49.4,29.62,South,183,6.9,10.1,97,0.00,,---,0.00,VWS V14.01,2013-01-30 22:54:00,
2013-01-30 17:59:00,50.0,49.2,29.59,SSE,163,14.8,15.4,97,0.00,,---,0.00,VWS V14.01,2013-01-30 22:59:00,
2013-01-30 18:04:00,49.6,48.8,29.59,SSE,168,9.2,12.1,97,0.00,,---,0.00,VWS V14.01,2013-01-30 23:04:00,
2013-01-30 18:09:00,49.1,48.3,29.59,SSE,149,9.2,12.1,97,0.00,,---,0.00,VWS V14.01,2013-01-30 23:09:00,
2013-01-30 18:14:00,48.6,47.8,29.59,SSE,158,10.5,11.6,97,0.00,,---,0.00,VWS V14.01,2013-01-30 23:14:00,
2013-01-30 18:19:00,48.2,47.4,29.59,South,183,10.5,14.3,97,0.00,,---,0.00,VWS V14.01,2013-01-30 23:19:00,
2013-01-30 18:24:00,47.8,47.0,29.59,South,171,8.7,11.2,97,0.00,,---,0.00,VWS V14.01,2013-01-30 23:24:00,
2013-01-30 18:29:00,48.0,47.2,29.59,SSE,161,8.3,13.9,97,0.00,,---,0.00,VWS V14.01,2013-01-30 23:29:00,
2013-01-30 18:34:00,48.4,47.6,29.59,South,169,13.9,13.9,97,0.00,,---,0.00,VWS V14.01,2013-01-30 23:34:00,
2013-01-30 18:39:00,48.7,47.9,29.59,South,175,13.4,15.9,97,0.00,,---,0.00,VWS V14.01,2013-01-30 23:39:00,
2013-01-30 18:44:00,49.3,48.5,29.59,SSE,166,9.2,10.5,97,0.00,,---,0.00,VWS V14.01,2013-01-30 23:44:00,
2013-01-30 18:49:00,49.3,48.5,29.59,South,176,11.2,16.8,97,0.00,,---,0.00,VWS V14.01,2013-01-30 23:49:00,
2013-01-30 18:54:00,49.5,48.7,29.59,SE,127,13.4,16.3,97,0.00,,---,0.00,VWS V14.01,2013-01-30 23:54:00,
2013-01-30 18:59:00,48.9,48.1,29.59,SSE,150,8.7,12.5,97,0.00,,---,0.00,VWS V14.01,2013-01-30 23:59:00,
2013-01-30 19:04:00,48.4,47.6,29.59,SE,139,15.4,15.4,97,0.00,,---,0.00,VWS V14.01,2013-01-31 00:04:00,
2013-01-30 19:09:00,48.2,47.4,29.59,South,175,11.2,12.5,97,0.00,,---,0.00,VWS V14.01,2013-01-31 00:09:00,
2013-01-30 19:14:00,48.0,47.2,29.59,SSE,154,15.2,15.2,97,0.00,,---,0.00,VWS V14.01,2013-01-31 00:14:00,
2013-01-30 19:19:00,47.7,46.8,29.59,SSE,152,10.1,11.2,97,0.00,,---,0.00,VWS V14.01,2013-01-31 00:19:00,
2013-01-30 19:24:00,47.5,46.7,29.59,SSE,160,11.0,12.1,97,0.00,,---,0.00,VWS V14.01,2013-01-31 00:24:00,
2013-01-30 19:29:00,47.3,46.5,29.59,SSE,154,11.0,11.0,97,0.00,,---,0.00,VWS V14.01,2013-01-31 00:29:00,
2013-01-30 19:34:00,47.1,46.3,29.59,SSE,160,17.2,17.2,97,0.00,,---,0.00,VWS V14.01,2013-01-31 00:34:00,
2013-01-30 19:39:00,47.1,46.3,29.59,South,187,13.0,13.0,97,0.00,,---,0.00,VWS V14.01,2013-01-31 00:39:00,
2013-01-30 19:44:00,47.1,46.3,29.59,South,182,12.1,12.1,97,0.00,,---,0.00,VWS V14.01,2013-01-31 00:44:00,
2013-01-30 19:49:00,47.1,46.3,29.59,SSE,150,13.0,13.0,97,0.00,,---,0.00,VWS V14.01,2013-01-31 00:49:00,
2013-01-30 19:54:00,47.3,46.5,29.59,SE,141,11.2,13.4,97,0.00,,---,0.00,VWS V14.01,2013-01-31 00:54:00,
2013-01-30 19:59:00,47.3,46.5,29.56,SE,140,8.7,11.6,97,0.00,,---,0.00,VWS V14.01,2013-01-31 00:59:00,
2013-01-30 20:04:00,47.3,46.5,29.56,SSE,147,8.7,9.6,97,0.00,,---,0.00,VWS V14.01,2013-01-31 01:04:00,
2013-01-30 20:09:00,47.5,46.7,29.56,South,169,11.6,12.1,97,0.00,,---,0.00,VWS V14.01,2013-01-31 01:09:00,
2013-01-30 20:14:00,47.8,47.0,29.56,ESE,114,6.3,6.9,97,0.00,,---,0.00,VWS V14.01,2013-01-31 01:14:00,
2013-01-30 20:19:00,47.3,46.5,29.56,SE,146,8.3,8.3,97,0.00,,---,0.00,VWS V14.01,2013-01-31 01:19:00,
2013-01-30 20:24:00,46.9,46.1,29.56,ESE,121,4.9,5.8,97,0.00,,---,0.00,VWS V14.01,2013-01-31 01:24:00,
2013-01-30 20:29:00,46.8,46.0,29.56,East,89,5.8,7.4,97,0.00,,---,0.00,VWS V14.01,2013-01-31 01:29:00,
2013-01-30 20:34:00,46.8,46.0,29.56,SE,144,5.4,6.9,97,0.00,,---,0.00,VWS V14.01,2013-01-31 01:34:00,
2013-01-30 20:39:00,47.3,46.5,29.56,South,180,17.2,18.1,97,0.00,,---,0.00,VWS V14.01,2013-01-31 01:39:00,
2013-01-30 20:44:00,48.9,48.1,29.53,SE,141,12.5,13.4,97,0.00,,---,0.00,VWS V14.01,2013-01-31 01:44:00,
2013-01-30 20:49:00,49.1,48.3,29.53,SSE,151,10.5,11.2,97,0.00,,---,0.00,VWS V14.01,2013-01-31 01:49:00,
2013-01-30 20:54:00,48.9,48.1,29.53,SSE,160,13.4,13.4,97,0.00,,---,0.00,VWS V14.01,2013-01-31 01:54:00,
2013-01-30 20:59:00,48.6,47.8,29.53,SE,141,8.7,8.7,97,0.00,,---,0.00,VWS V14.01,2013-01-31 01:59:00,
2013-01-30 21:04:00,48.6,47.8,29.53,SSE,165,12.5,13.0,97,0.00,,---,0.00,VWS V14.01,2013-01-31 02:04:00,
2013-01-30 21:09:00,49.1,48.3,29.53,SSE,162,14.8,14.8,97,0.00,,---,0.00,VWS V14.01,2013-01-31 02:09:00,
2013-01-30 21:14:00,49.6,48.8,29.53,South,188,17.2,17.2,97,0.00,,---,0.00,VWS V14.01,2013-01-31 02:14:00,
2013-01-30 21:19:00,50.0,49.2,29.53,South,181,13.0,15.9,97,0.00,,---,0.00,VWS V14.01,2013-01-31 02:19:00,
2013-01-30 21:24:00,50.4,49.5,29.53,South,169,11.0,15.9,97,0.00,,---,0.00,VWS V14.01,2013-01-31 02:24:00,
2013-01-30 21:29:00,50.5,49.7,29.50,South,184,11.0,11.6,97,0.00,,---,0.00,VWS V14.01,2013-01-31 02:29:00,
2013-01-30 21:34:00,50.7,49.9,29.50,SSE,165,17.7,17.7,97,0.00,,---,0.00,VWS V14.01,2013-01-31 02:34:00,
2013-01-30 21:39:00,50.9,50.1,29.50,South,188,18.6,18.6,97,0.00,,---,0.00,VWS V14.01,2013-01-31 02:39:00,
2013-01-30 21:44:00,51.1,50.3,29.50,SSW,198,25.3,25.3,97,0.00,,---,0.00,VWS V14.01,2013-01-31 02:44:00,
2013-01-30 21:49:00,51.3,50.4,29.50,SSE,156,20.1,25.3,97,0.00,,---,0.00,VWS V14.01,2013-01-31 02:49:00,
2013-01-30 21:54:00,51.1,50.3,29.50,South,172,9.2,14.3,97,0.00,,---,0.00,VWS V14.01,2013-01-31 02:54:00,
2013-01-30 21:59:00,50.5,49.7,29.50,SE,145,16.8,18.6,97,0.00,,---,0.00,VWS V14.01,2013-01-31 02:59:00,
2013-01-30 22:04:00,50.7,49.9,29.50,SE,137,14.8,15.2,97,0.00,,---,0.00,VWS V14.01,2013-01-31 03:04:00,
2013-01-30 22:09:00,50.5,49.7,29.50,SSW,193,17.2,17.2,97,0.00,,---,0.00,VWS V14.01,2013-01-31 03:09:00,
2013-01-30 22:14:00,50.5,49.7,29.47,South,177,16.8,17.2,97,0.00,,---,0.00,VWS V14.01,2013-01-31 03:14:00,
2013-01-30 22:19:00,50.4,49.5,29.47,South,177,17.7,19.9,97,0.00,,---,0.00,VWS V14.01,2013-01-31 03:19:00,
2013-01-30 22:24:00,50.4,49.5,29.47,South,175,13.0,14.8,97,0.00,,---,0.00,VWS V14.01,2013-01-31 03:24:00,
2013-01-30 22:29:00,50.5,49.7,29.47,SSE,153,15.2,19.5,97,0.00,,---,0.00,VWS V14.01,2013-01-31 03:29:00,
2013-01-30 22:34:00,50.9,50.1,29.47,SSE,168,19.0,19.9,97,0.00,,---,0.00,VWS V14.01,2013-01-31 03:34:00,
2013-01-30 22:39:00,51.1,50.3,29.47,SSE,165,14.3,16.3,97,0.00,,---,0.00,VWS V14.01,2013-01-31 03:39:00,
2013-01-30 22:44:00,51.6,50.8,29.47,SSE,161,18.6,19.0,97,0.00,,---,0.00,VWS V14.01,2013-01-31 03:44:00,
2013-01-30 22:49:00,52.0,51.2,29.47,SSE,158,18.1,18.1,97,0.00,,---,0.00,VWS V14.01,2013-01-31 03:49:00,
2013-01-30 22:54:00,52.3,51.5,29.47,South,169,21.0,21.0,97,0.00,,---,0.00,VWS V14.01,2013-01-31 03:54:00,
2013-01-30 22:59:00,52.2,51.3,29.47,SSE,152,11.0,13.9,97,0.00,,---,0.00,VWS V14.01,2013-01-31 03:59:00,
2013-01-30 23:04:00,52.0,51.2,29.47,SSW,192,13.9,15.4,97,0.00,,---,0.00,VWS V14.01,2013-01-31 04:04:00,
2013-01-30 23:09:00,51.8,51.0,29.47,SSE,167,21.9,21.9,97,0.00,,---,0.00,VWS V14.01,2013-01-31 04:09:00,
2013-01-30 23:14:00,51.6,50.8,29.47,SSW,195,21.0,24.4,97,0.00,,---,0.00,VWS V14.01,2013-01-31 04:14:00,
2013-01-30 23:19:00,51.6,50.8,29.47,South,190,16.8,21.9,97,0.00,,---,0.00,VWS V14.01,2013-01-31 04:19:00,
2013-01-30 23:24:00,51.6,50.8,29.47,SSE,161,15.9,17.2,97,0.00,,---,0.00,VWS V14.01,2013-01-31 04:24:00,
2013-01-30 23:29:00,51.4,50.6,29.47,South,171,10.1,19.0,97,0.00,,---,0.00,VWS V14.01,2013-01-31 04:29:00,
2013-01-30 23:33:00,51.3,50.4,29.47,South,176,13.9,18.1,97,0.00,,---,0.00,VWS V14.01,2013-01-31 04:33:00,
2013-01-30 23:38:00,51.1,50.3,29.47,SSE,148,14.8,17.2,97,0.00,,---,0.00,VWS V14.01,2013-01-31 04:38:00,
2013-01-30 23:43:00,50.9,50.1,29.44,SSE,154,14.8,18.6,97,0.00,,---,0.00,VWS V14.01,2013-01-31 04:43:00,
2013-01-30 23:48:00,50.7,49.9,29.44,SSW,193,16.8,16.8,97,0.00,,---,0.00,VWS V14.01,2013-01-31 04:48:00,
2013-01-30 23:53:00,50.4,49.5,29.44,South,171,11.0,14.8,97,0.00,,---,0.00,VWS V14.01,2013-01-31 04:53:00,
2013-01-30 23:58:00,50.2,49.4,29.44,SSW,207,5.4,17.2,97,0.00,,---,0.00,VWS V14.01,2013-01-31 04:58:00,